sensor_id;sensor_type;location;lat;lon;timestamp;pressure;altitude;pressure_sealevel;temperature;humidity
69060;BME280;56135;37.534;-122.308;2022-08-20T00:00:30;100775.38;;;20.96;57.17
69060;BME280;56135;37.534;-122.308;2022-08-20T00:03:05;100771.94;;;20.94;57.48
69060;BME280;56135;37.534;-122.308;2022-08-20T00:05:38;100770.44;;;20.89;57.59
69060;BME280;56135;37.534;-122.308;2022-08-20T00:08:05;100768.97;;;20.83;57.23
69060;BME280;56135;37.534;-122.308;2022-08-20T00:10:35;100765.66;;;20.78;57.73
69060;BME280;56135;37.534;-122.308;2022-08-20T00:13:07;100765.84;;;20.75;57.67
69060;BME280;56135;37.534;-122.308;2022-08-20T00:15:36;100772.16;;;20.74;57.30
69060;BME280;56135;37.534;-122.308;2022-08-20T00:18:04;100761.78;;;20.66;57.83
69060;BME280;56135;37.534;-122.308;2022-08-20T00:20:38;100760.94;;;20.65;58.23
69060;BME280;56135;37.534;-122.308;2022-08-20T00:23:05;100762.06;;;20.61;58.54
69060;BME280;56135;37.534;-122.308;2022-08-20T00:25:32;100762.16;;;20.60;58.07
69060;BME280;56135;37.534;-122.308;2022-08-20T00:27:58;100753.41;;;20.56;58.14
69060;BME280;56135;37.534;-122.308;2022-08-20T00:30:24;100761.75;;;20.50;58.46
69060;BME280;56135;37.534;-122.308;2022-08-20T00:32:54;100762.25;;;20.41;58.32
69060;BME280;56135;37.534;-122.308;2022-08-20T00:35:24;100759.50;;;20.42;59.07
69060;BME280;56135;37.534;-122.308;2022-08-20T00:37:50;100761.41;;;20.40;58.93
69060;BME280;56135;37.534;-122.308;2022-08-20T00:40:17;100767.19;;;20.32;58.77
69060;BME280;56135;37.534;-122.308;2022-08-20T00:42:55;100763.09;;;20.25;59.14
69060;BME280;56135;37.534;-122.308;2022-08-20T00:45:28;100762.13;;;20.26;59.48
69060;BME280;56135;37.534;-122.308;2022-08-20T00:47:54;100761.50;;;20.21;59.45
69060;BME280;56135;37.534;-122.308;2022-08-20T00:50:33;100759.00;;;20.18;59.60
69060;BME280;56135;37.534;-122.308;2022-08-20T00:53:01;100750.59;;;20.08;59.93
69060;BME280;56135;37.534;-122.308;2022-08-20T00:55:29;100753.50;;;20.04;60.48
69060;BME280;56135;37.534;-122.308;2022-08-20T00:57:59;100751.19;;;19.96;60.46
69060;BME280;56135;37.534;-122.308;2022-08-20T01:00:32;100749.63;;;19.92;60.67
69060;BME280;56135;37.534;-122.308;2022-08-20T01:02:59;100748.94;;;19.88;60.66
69060;BME280;56135;37.534;-122.308;2022-08-20T01:05:27;100746.25;;;19.88;60.87
69060;BME280;56135;37.534;-122.308;2022-08-20T01:07:54;100742.63;;;19.89;60.71
69060;BME280;56135;37.534;-122.308;2022-08-20T01:10:25;100749.16;;;19.83;60.79
69060;BME280;56135;37.534;-122.308;2022-08-20T01:12:54;100747.66;;;19.78;60.81
69060;BME280;56135;37.534;-122.308;2022-08-20T01:15:24;100752.53;;;19.70;60.73
69060;BME280;56135;37.534;-122.308;2022-08-20T01:17:55;100748.41;;;19.62;61.38
69060;BME280;56135;37.534;-122.308;2022-08-20T01:20:28;100749.03;;;19.50;61.79
69060;BME280;56135;37.534;-122.308;2022-08-20T01:26:28;100752.00;;;19.26;62.67
69060;BME280;56135;37.534;-122.308;2022-08-20T01:29:17;100737.41;;;19.14;63.31
69060;BME280;56135;37.534;-122.308;2022-08-20T01:31:44;100738.13;;;18.99;64.02
69060;BME280;56135;37.534;-122.308;2022-08-20T01:34:12;100739.56;;;18.87;64.53
69060;BME280;56135;37.534;-122.308;2022-08-20T01:36:40;100737.31;;;18.78;64.87
69060;BME280;56135;37.534;-122.308;2022-08-20T01:39:11;100742.09;;;18.71;65.33
69060;BME280;56135;37.534;-122.308;2022-08-20T01:42:20;100732.78;;;18.61;65.67
69060;BME280;56135;37.534;-122.308;2022-08-20T01:44:50;100733.63;;;18.42;65.89
69060;BME280;56135;37.534;-122.308;2022-08-20T01:47:26;100730.38;;;18.36;66.23
69060;BME280;56135;37.534;-122.308;2022-08-20T01:50:00;100731.56;;;18.28;66.64
69060;BME280;56135;37.534;-122.308;2022-08-20T01:52:40;100739.75;;;18.25;66.65
69060;BME280;56135;37.534;-122.308;2022-08-20T01:55:09;100729.47;;;18.16;67.01
69060;BME280;56135;37.534;-122.308;2022-08-20T01:57:37;100728.97;;;18.06;67.53
69060;BME280;56135;37.534;-122.308;2022-08-20T02:00:07;100739.22;;;17.96;68.01
69060;BME280;56135;37.534;-122.308;2022-08-20T02:02:34;100736.06;;;17.87;68.54
69060;BME280;56135;37.534;-122.308;2022-08-20T02:05:01;100736.38;;;17.79;68.66
69060;BME280;56135;37.534;-122.308;2022-08-20T02:07:27;100738.38;;;17.74;69.13
69060;BME280;56135;37.534;-122.308;2022-08-20T02:09:54;100736.84;;;17.68;68.62
69060;BME280;56135;37.534;-122.308;2022-08-20T02:12:20;100742.44;;;17.62;69.35
69060;BME280;56135;37.534;-122.308;2022-08-20T02:14:51;100740.97;;;17.55;69.77
69060;BME280;56135;37.534;-122.308;2022-08-20T02:17:22;100742.28;;;17.44;70.17
69060;BME280;56135;37.534;-122.308;2022-08-20T02:19:55;100749.69;;;17.38;70.30
69060;BME280;56135;37.534;-122.308;2022-08-20T02:22:33;100747.41;;;17.28;70.93
69060;BME280;56135;37.534;-122.308;2022-08-20T02:25:01;100753.97;;;17.20;71.06
69060;BME280;56135;37.534;-122.308;2022-08-20T02:27:27;100756.06;;;17.11;71.54
69060;BME280;56135;37.534;-122.308;2022-08-20T02:29:54;100756.50;;;17.00;72.34
69060;BME280;56135;37.534;-122.308;2022-08-20T02:32:20;100764.09;;;16.88;73.04
69060;BME280;56135;37.534;-122.308;2022-08-20T02:34:46;100761.78;;;16.78;73.32
69060;BME280;56135;37.534;-122.308;2022-08-20T02:37:12;100760.28;;;16.71;73.59
69060;BME280;56135;37.534;-122.308;2022-08-20T02:39:44;100762.41;;;16.61;73.73
69060;BME280;56135;37.534;-122.308;2022-08-20T02:42:10;100763.50;;;16.56;73.92
69060;BME280;56135;37.534;-122.308;2022-08-20T02:44:37;100760.16;;;16.50;74.25
69060;BME280;56135;37.534;-122.308;2022-08-20T02:47:05;100756.84;;;16.44;74.93
69060;BME280;56135;37.534;-122.308;2022-08-20T02:49:31;100766.03;;;16.35;75.30
69060;BME280;56135;37.534;-122.308;2022-08-20T02:51:58;100761.88;;;16.28;76.02
69060;BME280;56135;37.534;-122.308;2022-08-20T02:54:24;100770.06;;;16.22;76.15
69060;BME280;56135;37.534;-122.308;2022-08-20T02:56:50;100760.56;;;16.14;76.31
69060;BME280;56135;37.534;-122.308;2022-08-20T02:59:17;100764.38;;;16.07;76.26
69060;BME280;56135;37.534;-122.308;2022-08-20T03:01:43;100769.03;;;16.00;77.02
69060;BME280;56135;37.534;-122.308;2022-08-20T03:04:09;100769.22;;;15.96;76.97
69060;BME280;56135;37.534;-122.308;2022-08-20T03:06:38;100764.97;;;15.90;77.54
69060;BME280;56135;37.534;-122.308;2022-08-20T03:09:07;100759.03;;;15.82;78.32
69060;BME280;56135;37.534;-122.308;2022-08-20T03:11:34;100763.66;;;15.75;78.94
69060;BME280;56135;37.534;-122.308;2022-08-20T03:14:00;100766.56;;;15.67;79.29
69060;BME280;56135;37.534;-122.308;2022-08-20T03:16:26;100760.56;;;15.62;79.74
69060;BME280;56135;37.534;-122.308;2022-08-20T03:18:52;100762.50;;;15.57;79.67
69060;BME280;56135;37.534;-122.308;2022-08-20T03:21:19;100762.63;;;15.52;80.14
69060;BME280;56135;37.534;-122.308;2022-08-20T03:23:45;100769.06;;;15.47;79.65
69060;BME280;56135;37.534;-122.308;2022-08-20T03:26:13;100765.66;;;15.42;80.94
69060;BME280;56135;37.534;-122.308;2022-08-20T03:28:40;100773.75;;;15.39;80.80
69060;BME280;56135;37.534;-122.308;2022-08-20T03:31:07;100764.13;;;15.34;80.98
69060;BME280;56135;37.534;-122.308;2022-08-20T03:33:53;100767.75;;;15.32;81.36
69060;BME280;56135;37.534;-122.308;2022-08-20T03:36:21;100767.84;;;15.29;81.35
69060;BME280;56135;37.534;-122.308;2022-08-20T03:38:48;100773.31;;;15.24;81.99
69060;BME280;56135;37.534;-122.308;2022-08-20T03:41:15;100780.47;;;15.22;82.08
69060;BME280;56135;37.534;-122.308;2022-08-20T03:43:41;100786.81;;;15.18;82.24
69060;BME280;56135;37.534;-122.308;2022-08-20T03:46:07;100782.50;;;15.14;81.73
69060;BME280;56135;37.534;-122.308;2022-08-20T03:48:33;100778.09;;;15.13;82.80
69060;BME280;56135;37.534;-122.308;2022-08-20T03:50:59;100773.00;;;15.07;82.73
69060;BME280;56135;37.534;-122.308;2022-08-20T03:53:27;100775.66;;;15.07;82.75
69060;BME280;56135;37.534;-122.308;2022-08-20T03:55:58;100779.28;;;15.04;82.48
69060;BME280;56135;37.534;-122.308;2022-08-20T03:58:27;100783.88;;;14.99;83.06
69060;BME280;56135;37.534;-122.308;2022-08-20T04:00:54;100777.75;;;14.95;82.99
69060;BME280;56135;37.534;-122.308;2022-08-20T04:03:21;100789.09;;;15.02;83.75
69060;BME280;56135;37.534;-122.308;2022-08-20T04:05:48;100791.91;;;14.97;84.09
69060;BME280;56135;37.534;-122.308;2022-08-20T04:08:19;100792.88;;;14.95;83.26
69060;BME280;56135;37.534;-122.308;2022-08-20T04:10:47;100800.91;;;14.92;83.88
69060;BME280;56135;37.534;-122.308;2022-08-20T04:13:15;100800.00;;;14.93;84.45
69060;BME280;56135;37.534;-122.308;2022-08-20T04:15:41;100789.38;;;14.93;84.49
69060;BME280;56135;37.534;-122.308;2022-08-20T04:18:10;100793.03;;;14.89;84.27
69060;BME280;56135;37.534;-122.308;2022-08-20T04:20:38;100791.28;;;14.88;84.88
69060;BME280;56135;37.534;-122.308;2022-08-20T04:23:06;100782.50;;;14.84;84.93
69060;BME280;56135;37.534;-122.308;2022-08-20T04:25:35;100787.88;;;14.82;85.47
69060;BME280;56135;37.534;-122.308;2022-08-20T04:28:06;100783.53;;;14.80;85.58
69060;BME280;56135;37.534;-122.308;2022-08-20T04:30:33;100781.03;;;14.75;85.57
69060;BME280;56135;37.534;-122.308;2022-08-20T04:33:00;100781.97;;;14.73;85.09
69060;BME280;56135;37.534;-122.308;2022-08-20T04:35:27;100787.41;;;14.70;85.58
69060;BME280;56135;37.534;-122.308;2022-08-20T04:37:59;100778.69;;;14.64;85.27
69060;BME280;56135;37.534;-122.308;2022-08-20T04:40:26;100789.34;;;14.61;85.70
69060;BME280;56135;37.534;-122.308;2022-08-20T04:43:12;100793.91;;;14.58;86.21
69060;BME280;56135;37.534;-122.308;2022-08-20T04:45:39;100790.41;;;14.56;86.42
69060;BME280;56135;37.534;-122.308;2022-08-20T04:48:05;100791.28;;;14.56;86.97
69060;BME280;56135;37.534;-122.308;2022-08-20T04:50:36;100791.28;;;14.56;86.88
69060;BME280;56135;37.534;-122.308;2022-08-20T04:53:05;100792.22;;;14.55;87.51
69060;BME280;56135;37.534;-122.308;2022-08-20T04:55:32;100793.13;;;14.54;87.42
69060;BME280;56135;37.534;-122.308;2022-08-20T04:58:26;100793.22;;;14.51;87.29
69060;BME280;56135;37.534;-122.308;2022-08-20T05:00:54;100796.84;;;14.48;87.42
69060;BME280;56135;37.534;-122.308;2022-08-20T05:03:21;100792.47;;;14.46;87.72
69060;BME280;56135;37.534;-122.308;2022-08-20T05:05:47;100792.53;;;14.44;87.29
69060;BME280;56135;37.534;-122.308;2022-08-20T05:08:17;100789.03;;;14.42;88.20
69060;BME280;56135;37.534;-122.308;2022-08-20T05:10:44;100785.47;;;14.43;87.82
69060;BME280;56135;37.534;-122.308;2022-08-20T05:13:11;100795.19;;;14.43;88.40
69060;BME280;56135;37.534;-122.308;2022-08-20T05:15:37;100797.03;;;14.41;88.31
69060;BME280;56135;37.534;-122.308;2022-08-20T05:18:04;100789.13;;;14.39;88.50
69060;BME280;56135;37.534;-122.308;2022-08-20T05:20:35;100788.22;;;14.39;88.44
69060;BME280;56135;37.534;-122.308;2022-08-20T05:23:06;100796.25;;;14.37;88.31
69060;BME280;56135;37.534;-122.308;2022-08-20T05:25:32;100795.34;;;14.38;88.48
69060;BME280;56135;37.534;-122.308;2022-08-20T05:28:03;100794.50;;;14.36;88.75
69060;BME280;56135;37.534;-122.308;2022-08-20T05:30:32;100791.06;;;14.32;87.81
69060;BME280;56135;37.534;-122.308;2022-08-20T05:33:05;100784.91;;;14.30;88.11
69060;BME280;56135;37.534;-122.308;2022-08-20T05:35:33;100785.75;;;14.32;88.05
69060;BME280;56135;37.534;-122.308;2022-08-20T05:38:00;100787.63;;;14.29;87.57
69060;BME280;56135;37.534;-122.308;2022-08-20T05:40:27;100789.41;;;14.28;88.01
69060;BME280;56135;37.534;-122.308;2022-08-20T05:42:53;100778.91;;;14.24;87.61
69060;BME280;56135;37.534;-122.308;2022-08-20T05:45:20;100778.06;;;14.22;88.24
69060;BME280;56135;37.534;-122.308;2022-08-20T05:47:47;100791.34;;;14.22;88.45
69060;BME280;56135;37.534;-122.308;2022-08-20T05:50:14;100781.66;;;14.21;88.18
69060;BME280;56135;37.534;-122.308;2022-08-20T05:52:41;100790.53;;;14.20;88.20
69060;BME280;56135;37.534;-122.308;2022-08-20T05:55:08;100782.59;;;14.18;88.42
69060;BME280;56135;37.534;-122.308;2022-08-20T05:57:35;100776.38;;;14.19;88.91
69060;BME280;56135;37.534;-122.308;2022-08-20T06:00:03;100775.53;;;14.17;88.68
69060;BME280;56135;37.534;-122.308;2022-08-20T06:02:30;100781.75;;;14.16;88.23
69060;BME280;56135;37.534;-122.308;2022-08-20T06:05:14;100774.75;;;14.13;88.70
69060;BME280;56135;37.534;-122.308;2022-08-20T06:07:41;100780.94;;;14.14;88.71
69060;BME280;56135;37.534;-122.308;2022-08-20T06:10:07;100778.28;;;14.14;89.05
69060;BME280;56135;37.534;-122.308;2022-08-20T06:12:35;100765.91;;;14.13;89.25
69060;BME280;56135;37.534;-122.308;2022-08-20T06:15:03;100772.03;;;14.16;88.89
69060;BME280;56135;37.534;-122.308;2022-08-20T06:17:30;100772.97;;;14.14;89.08
69060;BME280;56135;37.534;-122.308;2022-08-20T06:20:01;100772.09;;;14.13;89.34
69060;BME280;56135;37.534;-122.308;2022-08-20T06:22:28;100769.47;;;14.12;88.54
69060;BME280;56135;37.534;-122.308;2022-08-20T06:24:54;100772.28;;;14.07;88.40
69060;BME280;56135;37.534;-122.308;2022-08-20T06:27:20;100769.69;;;14.04;88.65
69060;BME280;56135;37.534;-122.308;2022-08-20T06:29:47;100769.81;;;13.99;88.93
69060;BME280;56135;37.534;-122.308;2022-08-20T06:32:13;100769.81;;;13.99;89.20
69060;BME280;56135;37.534;-122.308;2022-08-20T06:34:39;100764.56;;;13.96;89.08
69060;BME280;56135;37.534;-122.308;2022-08-20T06:37:19;100779.59;;;13.97;89.51
69060;BME280;56135;37.534;-122.308;2022-08-20T06:39:46;100766.41;;;13.94;89.22
69060;BME280;56135;37.534;-122.308;2022-08-20T06:42:12;100765.50;;;13.95;89.34
69060;BME280;56135;37.534;-122.308;2022-08-20T06:44:38;100774.34;;;13.96;89.66
69060;BME280;56135;37.534;-122.308;2022-08-20T06:47:05;100772.59;;;13.95;89.62
69060;BME280;56135;37.534;-122.308;2022-08-20T06:49:33;100779.66;;;13.96;89.75
69060;BME280;56135;37.534;-122.308;2022-08-20T06:51:59;100772.59;;;13.95;89.61
69060;BME280;56135;37.534;-122.308;2022-08-20T06:54:26;100776.16;;;13.94;89.72
69060;BME280;56135;37.534;-122.308;2022-08-20T06:56:52;100776.22;;;13.91;89.46
69060;BME280;56135;37.534;-122.308;2022-08-20T06:59:19;100768.31;;;13.89;89.67
69060;BME280;56135;37.534;-122.308;2022-08-20T07:01:45;100772.78;;;13.87;89.69
69060;BME280;56135;37.534;-122.308;2022-08-20T07:04:14;100763.09;;;13.84;89.46
69060;BME280;56135;37.534;-122.308;2022-08-20T07:06:41;100761.25;;;13.88;89.62
69060;BME280;56135;37.534;-122.308;2022-08-20T07:09:08;100761.25;;;13.88;89.35
69060;BME280;56135;37.534;-122.308;2022-08-20T07:11:34;100762.25;;;13.84;89.19
69060;BME280;56135;37.534;-122.308;2022-08-20T07:14:01;100765.00;;;13.81;89.46
69060;BME280;56135;37.534;-122.308;2022-08-20T07:16:30;100756.19;;;13.79;89.41
69060;BME280;56135;37.534;-122.308;2022-08-20T07:18:56;100764.25;;;13.76;89.71
69060;BME280;56135;37.534;-122.308;2022-08-20T07:21:23;100765.13;;;13.75;89.94
69060;BME280;56135;37.534;-122.308;2022-08-20T07:23:50;100763.34;;;13.75;89.82
69060;BME280;56135;37.534;-122.308;2022-08-20T07:26:18;100762.56;;;13.72;89.74
69060;BME280;56135;37.534;-122.308;2022-08-20T07:28:45;100759.13;;;13.68;89.47
69060;BME280;56135;37.534;-122.308;2022-08-20T07:31:11;100754.84;;;13.62;89.38
69060;BME280;56135;37.534;-122.308;2022-08-20T07:33:56;100758.31;;;13.64;90.14
69060;BME280;56135;37.534;-122.308;2022-08-20T07:36:22;100752.16;;;13.64;90.20
69060;BME280;56135;37.534;-122.308;2022-08-20T07:38:48;100760.16;;;13.62;90.58
69060;BME280;56135;37.534;-122.308;2022-08-20T07:41:18;100753.91;;;13.65;91.01
69060;BME280;56135;37.534;-122.308;2022-08-20T07:43:44;100753.94;;;13.63;91.04
69060;BME280;56135;37.534;-122.308;2022-08-20T07:46:12;100743.44;;;13.59;90.53
69060;BME280;56135;37.534;-122.308;2022-08-20T07:48:41;100745.31;;;13.54;90.28
69060;BME280;56135;37.534;-122.308;2022-08-20T07:51:11;100742.75;;;13.50;90.59
69060;BME280;56135;37.534;-122.308;2022-08-20T07:53:39;100735.75;;;13.48;90.53
69060;BME280;56135;37.534;-122.308;2022-08-20T07:56:08;100731.41;;;13.44;90.46
69060;BME280;56135;37.534;-122.308;2022-08-20T07:58:36;100739.44;;;13.42;91.20
69060;BME280;56135;37.534;-122.308;2022-08-20T08:01:05;100734.13;;;13.41;91.15
69060;BME280;56135;37.534;-122.308;2022-08-20T08:03:31;100735.97;;;13.39;90.90
69060;BME280;56135;37.534;-122.308;2022-08-20T08:05:58;100729.78;;;13.38;90.98
69060;BME280;56135;37.534;-122.308;2022-08-20T08:08:25;100726.22;;;13.39;91.14
69060;BME280;56135;37.534;-122.308;2022-08-20T08:10:54;100729.81;;;13.37;90.97
69060;BME280;56135;37.534;-122.308;2022-08-20T08:13:23;100725.41;;;13.34;90.79
69060;BME280;56135;37.534;-122.308;2022-08-20T08:15:55;100730.78;;;13.32;90.89
69060;BME280;56135;37.534;-122.308;2022-08-20T08:18:25;100729.00;;;13.31;90.88
69060;BME280;56135;37.534;-122.308;2022-08-20T08:20:54;100730.81;;;13.31;90.88
69060;BME280;56135;37.534;-122.308;2022-08-20T08:23:20;100725.53;;;13.29;91.19
69060;BME280;56135;37.534;-122.308;2022-08-20T08:25:47;100725.63;;;13.26;91.15
69060;BME280;56135;37.534;-122.308;2022-08-20T08:28:16;100727.34;;;13.27;91.64
69060;BME280;56135;37.534;-122.308;2022-08-20T08:30:44;100723.72;;;13.31;92.04
69060;BME280;56135;37.534;-122.308;2022-08-20T08:33:22;100722.84;;;13.31;91.82
69060;BME280;56135;37.534;-122.308;2022-08-20T08:36:02;100721.19;;;13.27;91.51
69060;BME280;56135;37.534;-122.308;2022-08-20T08:38:31;100719.44;;;13.26;91.68
69060;BME280;56135;37.534;-122.308;2022-08-20T08:41:07;100727.47;;;13.23;91.57
69060;BME280;56135;37.534;-122.308;2022-08-20T08:43:37;100723.19;;;13.17;91.26
69060;BME280;56135;37.534;-122.308;2022-08-20T08:46:06;100722.34;;;13.15;91.41
69060;BME280;56135;37.534;-122.308;2022-08-20T08:48:39;100714.47;;;13.12;91.82
69060;BME280;56135;37.534;-122.308;2022-08-20T08:51:12;100718.97;;;13.08;91.58
69060;BME280;56135;37.534;-122.308;2022-08-20T08:53:52;100715.47;;;13.06;91.80
69060;BME280;56135;37.534;-122.308;2022-08-20T08:56:23;100721.81;;;13.00;91.27
69060;BME280;56135;37.534;-122.308;2022-08-20T08:58:49;100720.09;;;12.98;91.87
69060;BME280;56135;37.534;-122.308;2022-08-20T09:01:18;100726.28;;;12.98;92.31
69060;BME280;56135;37.534;-122.308;2022-08-20T09:03:48;100730.78;;;12.95;92.38
69060;BME280;56135;37.534;-122.308;2022-08-20T09:06:19;100724.59;;;12.94;92.48
69060;BME280;56135;37.534;-122.308;2022-08-20T09:08:55;100726.34;;;12.95;92.71
69060;BME280;56135;37.534;-122.308;2022-08-20T09:11:24;100721.13;;;12.92;92.91
69060;BME280;56135;37.534;-122.308;2022-08-20T09:13:50;100708.75;;;12.91;92.97
69060;BME280;56135;37.534;-122.308;2022-08-20T09:16:19;100707.00;;;12.90;92.73
69060;BME280;56135;37.534;-122.308;2022-08-20T09:18:48;100706.03;;;12.94;93.35
69060;BME280;56135;37.534;-122.308;2022-08-20T09:21:14;100714.91;;;12.93;93.43
69060;BME280;56135;37.534;-122.308;2022-08-20T09:23:40;100715.81;;;12.92;93.20
69060;BME280;56135;37.534;-122.308;2022-08-20T09:26:07;100720.25;;;12.92;93.54
69060;BME280;56135;37.534;-122.308;2022-08-20T09:28:33;100727.28;;;12.93;93.57
69060;BME280;56135;37.534;-122.308;2022-08-20T09:30:59;100719.38;;;12.91;93.34
69060;BME280;56135;37.534;-122.308;2022-08-20T09:33:26;100730.03;;;12.88;93.58
69060;BME280;56135;37.534;-122.308;2022-08-20T09:35:52;100726.53;;;12.86;93.41
69060;BME280;56135;37.534;-122.308;2022-08-20T09:38:18;100715.13;;;12.84;93.51
69060;BME280;56135;37.534;-122.308;2022-08-20T09:40:44;100718.59;;;12.86;93.84
69060;BME280;56135;37.534;-122.308;2022-08-20T09:43:10;100706.28;;;12.83;93.89
69060;BME280;56135;37.534;-122.308;2022-08-20T09:45:37;100703.75;;;12.79;93.69
69060;BME280;56135;37.534;-122.308;2022-08-20T09:48:03;100703.75;;;12.79;93.46
69060;BME280;56135;37.534;-122.308;2022-08-20T09:50:31;100696.69;;;12.78;94.25
69060;BME280;56135;37.534;-122.308;2022-08-20T09:53:00;100692.28;;;12.77;94.34
69060;BME280;56135;37.534;-122.308;2022-08-20T09:55:38;100688.00;;;12.71;94.00
69060;BME280;56135;37.534;-122.308;2022-08-20T09:58:41;100693.34;;;12.70;94.00
69060;BME280;56135;37.534;-122.308;2022-08-20T10:01:13;100690.69;;;12.70;94.85
69060;BME280;56135;37.534;-122.308;2022-08-20T10:03:43;100693.41;;;12.66;94.55
69060;BME280;56135;37.534;-122.308;2022-08-20T10:06:12;100689.84;;;12.67;94.67
69060;BME280;56135;37.534;-122.308;2022-08-20T10:08:40;100694.28;;;12.67;94.83
69060;BME280;56135;37.534;-122.308;2022-08-20T10:11:06;100700.44;;;12.67;94.71
69060;BME280;56135;37.534;-122.308;2022-08-20T10:13:32;100693.41;;;12.66;95.15
69060;BME280;56135;37.534;-122.308;2022-08-20T10:15:58;100692.53;;;12.66;94.82
69060;BME280;56135;37.534;-122.308;2022-08-20T10:18:24;100682.78;;;12.66;94.91
69060;BME280;56135;37.534;-122.308;2022-08-20T10:20:50;100681.13;;;12.62;95.10
69060;BME280;56135;37.534;-122.308;2022-08-20T10:23:16;100678.47;;;12.62;95.17
69060;BME280;56135;37.534;-122.308;2022-08-20T10:25:42;100681.13;;;12.62;95.02
69060;BME280;56135;37.534;-122.308;2022-08-20T10:28:09;100689.94;;;12.64;94.87
69060;BME280;56135;37.534;-122.308;2022-08-20T10:30:35;100687.31;;;12.63;95.44
69060;BME280;56135;37.534;-122.308;2022-08-20T10:33:01;100691.72;;;12.62;95.68
69060;BME280;56135;37.534;-122.308;2022-08-20T10:35:28;100695.31;;;12.60;95.51
69060;BME280;56135;37.534;-122.308;2022-08-20T10:37:54;100700.59;;;12.61;95.74
69060;BME280;56135;37.534;-122.308;2022-08-20T10:40:21;100695.34;;;12.58;95.44
69060;BME280;56135;37.534;-122.308;2022-08-20T10:42:47;100698.84;;;12.60;95.73
69060;BME280;56135;37.534;-122.308;2022-08-20T10:45:14;100703.31;;;12.58;96.00
69060;BME280;56135;37.534;-122.308;2022-08-20T10:47:41;100699.84;;;12.56;95.32
69060;BME280;56135;37.534;-122.308;2022-08-20T10:50:11;100701.53;;;12.57;95.65
69060;BME280;56135;37.534;-122.308;2022-08-20T10:52:37;100697.19;;;12.56;96.13
69060;BME280;56135;37.534;-122.308;2022-08-20T10:55:04;100698.09;;;12.55;96.06
69060;BME280;56135;37.534;-122.308;2022-08-20T10:57:31;100700.81;;;12.52;96.07
69060;BME280;56135;37.534;-122.308;2022-08-20T11:00:00;100696.38;;;12.52;96.23
69060;BME280;56135;37.534;-122.308;2022-08-20T11:02:27;100689.28;;;12.53;96.33
69060;BME280;56135;37.534;-122.308;2022-08-20T11:04:53;100691.16;;;12.49;96.20
69060;BME280;56135;37.534;-122.308;2022-08-20T11:07:28;100685.03;;;12.46;96.07
69060;BME280;56135;37.534;-122.308;2022-08-20T11:09:55;100692.13;;;12.44;96.26
69060;BME280;56135;37.534;-122.308;2022-08-20T11:12:22;100692.19;;;12.41;96.24
69060;BME280;56135;37.534;-122.308;2022-08-20T11:14:49;100700.06;;;12.44;96.91
69060;BME280;56135;37.534;-122.308;2022-08-20T11:17:25;100698.31;;;12.44;96.93
69060;BME280;56135;37.534;-122.308;2022-08-20T11:19:52;100702.78;;;12.41;96.93
69060;BME280;56135;37.534;-122.308;2022-08-20T11:22:19;100696.66;;;12.39;96.36
69060;BME280;56135;37.534;-122.308;2022-08-20T11:24:46;100695.81;;;12.37;96.61
69060;BME280;56135;37.534;-122.308;2022-08-20T11:29:49;100692.31;;;12.36;97.12
69060;BME280;56135;37.534;-122.308;2022-08-20T11:32:16;100697.63;;;12.36;97.45
69060;BME280;56135;37.534;-122.308;2022-08-20T11:34:42;100696.72;;;12.35;97.63
69060;BME280;56135;37.534;-122.308;2022-08-20T11:37:10;100693.22;;;12.35;97.55
69060;BME280;56135;37.534;-122.308;2022-08-20T11:39:37;100699.44;;;12.32;97.48
69060;BME280;56135;37.534;-122.308;2022-08-20T11:42:03;100692.41;;;12.31;97.50
69060;BME280;56135;37.534;-122.308;2022-08-20T11:44:29;100690.66;;;12.30;97.61
69060;BME280;56135;37.534;-122.308;2022-08-20T11:46:58;100684.50;;;12.30;98.00
69060;BME280;56135;37.534;-122.308;2022-08-20T11:49:31;100690.66;;;12.30;97.98
69060;BME280;56135;37.534;-122.308;2022-08-20T11:51:57;100697.72;;;12.30;97.82
69060;BME280;56135;37.534;-122.308;2022-08-20T11:54:23;100695.13;;;12.28;98.04
69060;BME280;56135;37.534;-122.308;2022-08-20T11:56:50;100692.47;;;12.28;98.01
69060;BME280;56135;37.534;-122.308;2022-08-20T11:59:16;100697.81;;;12.25;97.84
69060;BME280;56135;37.534;-122.308;2022-08-20T12:01:42;100696.09;;;12.24;98.14
69060;BME280;56135;37.534;-122.308;2022-08-20T12:04:08;100698.75;;;12.23;98.27
69060;BME280;56135;37.534;-122.308;2022-08-20T12:06:35;100694.41;;;12.18;97.76
69060;BME280;56135;37.534;-122.308;2022-08-20T12:09:01;100703.13;;;12.24;98.32
69060;BME280;56135;37.534;-122.308;2022-08-20T12:11:27;100716.41;;;12.22;98.25
69060;BME280;56135;37.534;-122.308;2022-08-20T12:13:53;100713.72;;;12.24;98.84
69060;BME280;56135;37.534;-122.308;2022-08-20T12:16:19;100705.88;;;12.21;98.60
69060;BME280;56135;37.534;-122.308;2022-08-20T12:18:46;100709.41;;;12.20;98.46
69060;BME280;56135;37.534;-122.308;2022-08-20T12:21:13;100710.28;;;12.20;98.86
69060;BME280;56135;37.534;-122.308;2022-08-20T12:23:39;100713.84;;;12.19;99.00
69060;BME280;56135;37.534;-122.308;2022-08-20T12:26:06;100703.22;;;12.21;99.10
69060;BME280;56135;37.534;-122.308;2022-08-20T12:28:32;100710.34;;;12.17;98.83
69060;BME280;56135;37.534;-122.308;2022-08-20T12:30:58;100707.75;;;12.14;98.87
69060;BME280;56135;37.534;-122.308;2022-08-20T12:33:24;100705.13;;;12.14;99.09